createdAt,value
2023-03-05T00:01:22.594Z,5.60
2023-03-05T00:02:55.381Z,5.60
2023-03-05T00:04:28.118Z,5.60
2023-03-05T00:05:59.931Z,5.60
2023-03-05T00:07:32.941Z,5.60
2023-03-05T00:09:07.284Z,5.60
2023-03-05T00:10:39.991Z,5.70
2023-03-05T00:12:12.866Z,5.60
2023-03-05T00:13:44.656Z,5.70
2023-03-05T00:15:17.503Z,5.70
2023-03-05T00:16:50.199Z,5.70
2023-03-05T00:18:22.503Z,5.70
2023-03-05T00:19:56.997Z,5.60
2023-03-05T00:21:32.187Z,5.70
2023-03-05T00:23:04.889Z,5.70
2023-03-05T00:24:38.978Z,5.70
2023-03-05T00:26:10.744Z,5.60
2023-03-05T00:27:43.422Z,5.60
2023-03-05T00:29:19.206Z,5.60
2023-03-05T00:30:51.009Z,5.70
2023-03-05T00:32:23.911Z,5.60
2023-03-05T00:33:57.336Z,5.60
2023-03-05T00:35:30.109Z,5.60
2023-03-05T00:37:02.964Z,5.60
2023-03-05T00:38:34.881Z,5.60
2023-03-05T00:40:10.914Z,5.70
2023-03-05T00:41:42.661Z,5.70
2023-03-05T00:43:15.375Z,5.70
2023-03-05T00:44:48.060Z,5.70
2023-03-05T00:46:19.901Z,5.70
2023-03-05T00:47:52.666Z,5.60
2023-03-05T00:49:25.466Z,5.70
2023-03-05T00:50:58.164Z,5.70
2023-03-05T00:52:31.093Z,5.70
2023-03-05T00:54:04.114Z,5.70
2023-03-05T00:55:38.158Z,5.70
2023-03-05T00:57:10.894Z,5.70
2023-03-05T00:58:43.597Z,5.70
2023-03-05T01:00:17.314Z,5.70
2023-03-05T01:01:50.184Z,5.70
2023-03-05T01:03:22.994Z,5.70
2023-03-05T01:04:55.783Z,5.70
2023-03-05T01:06:29.366Z,5.70
2023-03-05T01:08:02.492Z,5.70
2023-03-05T01:09:35.255Z,5.70
2023-03-05T01:11:09.726Z,5.70
2023-03-05T01:12:41.478Z,5.70
2023-03-05T01:14:14.335Z,5.70
2023-03-05T01:15:47.724Z,5.60
2023-03-05T01:17:20.512Z,5.60
2023-03-05T01:18:53.309Z,5.60
2023-03-05T01:20:26.059Z,5.60
2023-03-05T01:21:58.800Z,5.60
2023-03-05T01:23:31.551Z,5.60
2023-03-05T01:25:04.456Z,5.50
2023-03-05T01:26:38.528Z,5.50
2023-03-05T01:28:10.958Z,5.50
2023-03-05T01:29:43.651Z,5.50
2023-03-05T01:31:16.443Z,5.60
2023-03-05T01:32:48.219Z,5.50
2023-03-05T01:34:21.326Z,5.50
2023-03-05T01:35:54.142Z,5.60
2023-03-05T01:37:25.922Z,5.50
2023-03-05T01:38:58.682Z,5.60
2023-03-05T01:40:31.524Z,5.60
2023-03-05T01:42:06.145Z,5.60
2023-03-05T01:43:38.995Z,5.60
2023-03-05T01:45:13.692Z,5.60
2023-03-05T01:46:46.382Z,5.60
2023-03-05T01:48:19.131Z,5.50
2023-03-05T01:49:52.348Z,5.50
2023-03-05T01:51:27.994Z,5.50
2023-03-05T01:53:04.907Z,5.50
2023-03-05T01:54:41.633Z,5.50
2023-03-05T01:56:13.430Z,5.50
2023-03-05T01:57:50.861Z,5.50
2023-03-05T01:59:25.735Z,5.50
2023-03-05T02:00:58.542Z,5.50
2023-03-05T02:02:31.483Z,5.50
2023-03-05T02:04:03.891Z,5.50
2023-03-05T02:05:39.057Z,5.50
2023-03-05T02:07:12.631Z,5.40
2023-03-05T02:08:44.415Z,5.40
2023-03-05T02:10:19.352Z,5.50
2023-03-05T02:11:52.903Z,5.40
2023-03-05T02:13:30.945Z,5.50
2023-03-05T02:15:03.904Z,5.40
2023-03-05T02:16:37.911Z,5.40
2023-03-05T02:18:11.538Z,5.50
2023-03-05T02:19:49.405Z,5.40
2023-03-05T02:21:36.529Z,5.40
2023-03-05T02:23:09.351Z,5.40
2023-03-05T02:24:42.084Z,5.50
2023-03-05T02:26:14.812Z,5.40
2023-03-05T02:27:52.577Z,5.40
2023-03-05T02:29:25.845Z,5.40
2023-03-05T02:30:58.822Z,5.40
2023-03-05T02:32:30.619Z,5.40
2023-03-05T02:34:03.351Z,5.40
2023-03-05T02:35:36.081Z,5.40
2023-03-05T02:37:10.553Z,5.40
2023-03-05T02:38:44.221Z,5.40
2023-03-05T02:40:17.439Z,5.40
2023-03-05T02:41:50.136Z,5.40
2023-03-05T02:43:21.927Z,5.40
2023-03-05T02:44:54.639Z,5.40
2023-03-05T02:46:27.376Z,5.40
2023-03-05T02:48:00.164Z,5.40
2023-03-05T02:49:32.853Z,5.40
2023-03-05T02:51:07.563Z,5.40
2023-03-05T02:52:41.603Z,5.40
2023-03-05T02:54:14.322Z,5.50
2023-03-05T02:55:47.271Z,5.50
2023-03-05T02:57:20.656Z,5.50
2023-03-05T02:58:53.415Z,5.50
2023-03-05T03:00:26.417Z,5.50
2023-03-05T03:01:59.118Z,5.50
2023-03-05T03:03:31.222Z,5.50
2023-03-05T03:05:04.248Z,5.50
2023-03-05T03:06:36.956Z,5.50
2023-03-05T03:08:11.380Z,5.50
2023-03-05T03:09:44.162Z,5.50
2023-03-05T03:11:15.948Z,5.50
2023-03-05T03:12:48.693Z,5.50
2023-03-05T03:14:21.720Z,5.50
2023-03-05T03:16:03.170Z,5.50
2023-03-05T03:17:36.539Z,5.40
2023-03-05T03:19:09.237Z,5.50
2023-03-05T03:20:41.995Z,5.50
2023-03-05T03:22:16.578Z,5.40
2023-03-05T03:23:50.937Z,5.40
2023-03-05T03:25:23.576Z,5.40
2023-03-05T03:26:56.297Z,5.40
2023-03-05T03:28:28.179Z,5.40
2023-03-05T03:30:04.586Z,5.40
2023-03-05T03:31:40.043Z,5.40
2023-03-05T03:33:12.943Z,5.40
2023-03-05T03:34:44.882Z,5.40
2023-03-05T03:36:17.626Z,5.40
2023-03-05T03:37:50.333Z,5.30
2023-03-05T03:39:25.412Z,5.30
2023-03-05T03:40:58.196Z,5.30
2023-03-05T03:42:30.892Z,5.30
2023-03-05T03:44:04.902Z,5.30
2023-03-05T03:45:41.748Z,5.30
2023-03-05T03:47:14.514Z,5.30
2023-03-05T03:48:51.053Z,5.30
2023-03-05T03:50:24.899Z,5.30
2023-03-05T03:51:58.090Z,5.30
2023-03-05T03:53:30.791Z,5.30
2023-03-05T03:55:04.479Z,5.30
2023-03-05T03:56:37.216Z,5.30
2023-03-05T03:58:10.399Z,5.30
2023-03-05T03:59:45.353Z,5.30
2023-03-05T04:01:18.073Z,5.30
2023-03-05T04:02:49.994Z,5.30
2023-03-05T04:04:22.804Z,5.30
2023-03-05T04:05:55.533Z,5.30
2023-03-05T04:07:28.282Z,5.30
2023-03-05T04:09:01.163Z,5.30
2023-03-05T04:10:35.204Z,5.30
2023-03-05T04:12:08.582Z,5.30
2023-03-05T04:13:41.296Z,5.20
2023-03-05T04:15:14.006Z,5.20
2023-03-05T04:16:46.721Z,5.20
2023-03-05T04:18:19.473Z,5.20
2023-03-05T04:19:53.239Z,5.20
2023-03-05T04:21:26.082Z,5.20
2023-03-05T04:22:58.776Z,5.20
2023-03-05T04:24:30.743Z,5.20
2023-03-05T04:26:05.343Z,5.10
2023-03-05T04:27:40.049Z,5.10
2023-03-05T04:29:12.790Z,5.10
2023-03-05T04:30:45.622Z,5.10
2023-03-05T04:32:23.040Z,5.00
2023-03-05T04:33:55.864Z,5.10
2023-03-05T04:35:28.797Z,5.10
2023-03-05T04:37:01.548Z,5.10
2023-03-05T04:38:34.241Z,5.10
2023-03-05T04:40:07.455Z,5.10
2023-03-05T04:41:41.532Z,5.00
2023-03-05T04:43:14.621Z,5.00
2023-03-05T04:44:46.705Z,5.00
2023-03-05T04:46:19.453Z,5.00
2023-03-05T04:47:52.231Z,4.90
2023-03-05T04:49:24.930Z,5.00
2023-03-05T04:50:58.411Z,4.90
2023-03-05T04:52:31.442Z,4.90
2023-03-05T04:54:04.259Z,4.90
2023-03-05T04:55:36.945Z,4.90
2023-03-05T04:57:11.025Z,4.90
2023-03-05T04:58:43.926Z,4.90
2023-03-05T05:00:18.088Z,4.80
2023-03-05T05:01:49.890Z,4.80
2023-03-05T05:03:22.710Z,4.80
2023-03-05T05:04:54.576Z,4.70
2023-03-05T05:06:27.314Z,4.70
2023-03-05T05:07:59.207Z,4.80
2023-03-05T05:09:31.882Z,4.80
2023-03-05T05:11:07.140Z,4.80
2023-03-05T05:12:41.236Z,4.80
2023-03-05T05:14:14.165Z,4.80
2023-03-05T05:15:45.960Z,4.80
2023-03-05T05:17:18.795Z,4.80
2023-03-05T05:18:51.505Z,4.80
2023-03-05T05:20:24.256Z,4.70
2023-03-05T05:21:56.940Z,4.70
2023-03-05T05:23:29.647Z,4.80
2023-03-05T05:25:03.077Z,4.80
2023-03-05T05:26:35.935Z,4.80
2023-03-05T05:28:10.830Z,4.80
2023-03-05T05:29:45.171Z,4.80
2023-03-05T05:31:19.029Z,4.80
2023-03-05T05:32:50.794Z,4.80
2023-03-05T05:34:25.025Z,4.80
2023-03-05T05:35:57.830Z,4.80
2023-03-05T05:37:29.935Z,4.80
2023-03-05T05:39:02.619Z,4.80
2023-03-05T05:40:34.377Z,4.80
2023-03-05T05:42:07.582Z,4.90
2023-03-05T05:43:41.259Z,4.90
2023-03-05T05:45:14.111Z,4.90
2023-03-05T05:46:46.909Z,4.80
2023-03-05T05:48:19.619Z,4.80
2023-03-05T05:49:52.420Z,4.80
2023-03-05T05:51:24.587Z,4.80
2023-03-05T05:52:57.272Z,4.80
2023-03-05T05:54:30.058Z,4.80
2023-03-05T05:56:04.471Z,4.80
2023-03-05T05:57:37.210Z,4.70
2023-03-05T05:59:11.996Z,4.70
2023-03-05T06:00:44.807Z,4.70
2023-03-05T06:02:17.560Z,4.70
2023-03-05T06:03:50.446Z,4.70
2023-03-05T06:05:23.356Z,4.80
2023-03-05T06:06:56.082Z,4.80
2023-03-05T06:08:28.776Z,4.80
2023-03-05T06:10:01.510Z,4.80
2023-03-05T06:11:33.979Z,4.80
2023-03-05T06:13:06.905Z,4.80
2023-03-05T06:14:40.945Z,4.80
2023-03-05T06:16:15.421Z,4.80
2023-03-05T06:17:48.638Z,4.70
2023-03-05T06:19:20.373Z,4.80
2023-03-05T06:20:56.841Z,4.80
2023-03-05T06:22:29.539Z,4.80
2023-03-05T06:24:02.243Z,4.80
2023-03-05T06:25:34.932Z,4.80
2023-03-05T06:27:07.792Z,4.70
2023-03-05T06:28:40.104Z,4.80
2023-03-05T06:30:14.849Z,4.70
2023-03-05T06:31:47.534Z,4.80
2023-03-05T06:33:20.465Z,4.70
2023-03-05T06:34:53.213Z,4.70
2023-03-05T06:36:26.741Z,4.80
2023-03-05T06:37:59.464Z,4.70
2023-03-05T06:39:32.394Z,4.70
2023-03-05T06:41:11.474Z,4.80
2023-03-05T06:42:44.206Z,4.80
2023-03-05T06:44:16.898Z,4.80
2023-03-05T06:45:50.947Z,4.80
2023-03-05T06:47:23.712Z,4.80
2023-03-05T06:48:58.170Z,4.80
2023-03-05T06:50:30.888Z,4.80
2023-03-05T06:52:04.355Z,4.80
2023-03-05T06:53:36.146Z,4.70
2023-03-05T06:55:10.120Z,4.70
2023-03-05T06:56:44.130Z,4.70
2023-03-05T06:58:16.872Z,4.70
2023-03-05T06:59:49.652Z,4.70
2023-03-05T07:01:24.234Z,4.70
2023-03-05T07:02:56.955Z,4.70
2023-03-05T07:04:29.710Z,4.60
2023-03-05T07:06:04.201Z,4.60
2023-03-05T07:07:37.263Z,4.60
2023-03-05T07:09:13.966Z,4.60
2023-03-05T07:10:46.676Z,4.60
2023-03-05T07:12:19.371Z,4.60
2023-03-05T07:13:52.500Z,4.60
2023-03-05T07:15:25.280Z,4.50
2023-03-05T07:16:59.304Z,4.60
2023-03-05T07:18:32.055Z,4.60
2023-03-05T07:20:05.421Z,4.60
2023-03-05T07:21:39.885Z,4.60
2023-03-05T07:23:13.103Z,4.60
2023-03-05T07:24:45.848Z,4.60
2023-03-05T07:26:18.886Z,4.60
2023-03-05T07:27:51.907Z,4.60
2023-03-05T07:29:24.646Z,4.70
2023-03-05T07:30:58.925Z,4.70
2023-03-05T07:32:35.699Z,4.70
2023-03-05T07:34:08.461Z,4.70
2023-03-05T07:35:42.192Z,4.70
2023-03-05T07:37:15.492Z,4.70
2023-03-05T07:38:48.314Z,4.70
2023-03-05T07:40:21.826Z,4.70
2023-03-05T07:41:54.511Z,4.70
2023-03-05T07:43:27.188Z,4.70
2023-03-05T07:44:59.888Z,4.70
2023-03-05T07:46:34.781Z,4.70
2023-03-05T07:48:13.111Z,4.70
2023-03-05T07:49:46.139Z,4.70
2023-03-05T07:51:20.361Z,4.70
2023-03-05T07:52:53.091Z,4.70
2023-03-05T07:54:25.768Z,4.70
2023-03-05T07:55:58.770Z,4.70
2023-03-05T07:57:31.524Z,4.80
2023-03-05T07:59:06.514Z,4.70
2023-03-05T08:00:39.315Z,4.70
2023-03-05T08:02:13.205Z,4.80
2023-03-05T08:03:47.302Z,4.70
2023-03-05T08:05:20.045Z,4.80
2023-03-05T08:06:53.151Z,4.80
2023-03-05T08:08:25.853Z,4.70
2023-03-05T08:09:58.529Z,4.70
2023-03-05T08:11:31.222Z,4.70
2023-03-05T08:13:04.031Z,4.80
2023-03-05T08:14:36.973Z,4.80
2023-03-05T08:16:12.513Z,4.80
2023-03-05T08:17:45.229Z,4.80
2023-03-05T08:19:20.166Z,4.90
2023-03-05T08:20:52.866Z,4.90
2023-03-05T08:22:25.599Z,4.90
2023-03-05T08:23:59.180Z,4.90
2023-03-05T08:25:31.988Z,4.90
2023-03-05T08:27:04.830Z,5.00
2023-03-05T08:28:37.516Z,4.90
2023-03-05T08:30:13.758Z,4.90
2023-03-05T08:31:47.118Z,5.00
2023-03-05T08:33:19.822Z,5.00
2023-03-05T08:34:58.317Z,5.00
2023-03-05T08:36:31.072Z,5.00
2023-03-05T08:38:03.793Z,5.00
2023-03-05T08:39:36.500Z,5.10
2023-03-05T08:41:09.222Z,5.10
2023-03-05T08:42:41.920Z,5.10
2023-03-05T08:44:14.624Z,5.20
2023-03-05T08:45:49.499Z,5.20
2023-03-05T08:47:25.327Z,5.30
2023-03-05T08:48:58.057Z,5.30
2023-03-05T08:50:32.111Z,5.30
2023-03-05T08:52:04.941Z,5.30
2023-03-05T08:53:37.668Z,5.30
2023-03-05T08:55:12.015Z,5.40
2023-03-05T08:56:44.799Z,5.40
2023-03-05T08:58:17.491Z,5.40
2023-03-05T08:59:50.278Z,5.40
2023-03-05T09:01:23.832Z,5.40
2023-03-05T09:02:56.677Z,5.40
2023-03-05T09:04:29.495Z,5.40
2023-03-05T09:06:05.385Z,5.50
2023-03-05T09:07:38.198Z,5.50
2023-03-05T09:09:11.128Z,5.50
2023-03-05T09:10:44.062Z,5.60
2023-03-05T09:12:16.821Z,5.50
2023-03-05T09:13:49.630Z,5.60
2023-03-05T09:15:22.418Z,5.60
2023-03-05T09:16:55.131Z,5.70
2023-03-05T09:18:28.769Z,5.70
2023-03-05T09:20:01.667Z,5.70
2023-03-05T09:21:35.802Z,5.70
2023-03-05T09:23:08.526Z,5.80
2023-03-05T09:24:41.245Z,5.80
2023-03-05T09:26:15.592Z,5.80
2023-03-05T09:27:48.437Z,5.90
2023-03-05T09:29:21.181Z,5.90
2023-03-05T09:30:53.875Z,5.90
2023-03-05T09:32:26.724Z,5.90
2023-03-05T09:33:59.433Z,5.90
2023-03-05T09:35:35.757Z,5.90
2023-03-05T09:37:10.300Z,5.90
2023-03-05T09:38:43.009Z,5.90
2023-03-05T09:40:19.040Z,5.90
2023-03-05T09:42:14.190Z,5.90
2023-03-05T09:43:55.173Z,5.80
2023-03-05T09:45:30.047Z,5.80
2023-03-05T09:47:19.289Z,5.80
2023-03-05T09:48:53.673Z,5.80
2023-03-05T09:50:41.451Z,5.70
2023-03-05T09:52:21.676Z,5.70
2023-03-05T09:54:03.137Z,5.70
2023-03-05T09:55:40.284Z,5.70
2023-03-05T09:57:18.410Z,5.70
2023-03-05T09:58:56.012Z,5.70
2023-03-05T10:00:35.293Z,5.70
2023-03-05T10:02:17.957Z,5.80
2023-03-05T10:03:57.736Z,5.80
2023-03-05T10:05:51.405Z,5.70
2023-03-05T10:07:28.512Z,5.70
2023-03-05T10:09:08.413Z,5.80
2023-03-05T10:10:44.256Z,5.80
2023-03-05T10:12:25.245Z,5.80
2023-03-05T10:13:58.198Z,5.80
2023-03-05T10:15:39.257Z,5.80
2023-03-05T10:17:37.136Z,5.90
2023-03-05T10:19:16.776Z,5.90
2023-03-05T10:21:00.166Z,5.90
2023-03-05T10:22:43.866Z,5.90
2023-03-05T10:24:24.730Z,5.90
2023-03-05T10:26:11.759Z,5.90
2023-03-05T10:27:49.356Z,5.90
2023-03-05T10:29:40.645Z,5.90
2023-03-05T10:31:25.065Z,5.90
2023-03-05T10:33:07.037Z,5.90
2023-03-05T10:34:54.275Z,5.90
2023-03-05T10:36:51.533Z,5.90
2023-03-05T10:39:02.654Z,5.90
2023-03-05T10:40:39.393Z,5.90
2023-03-05T10:42:21.111Z,5.90
2023-03-05T10:44:00.723Z,5.90
2023-03-05T10:45:37.444Z,5.90
2023-03-05T10:47:17.508Z,5.90
2023-03-05T10:48:54.087Z,5.90
2023-03-05T10:50:29.748Z,5.90
2023-03-05T10:52:08.765Z,5.90
2023-03-05T10:53:55.692Z,5.90
2023-03-05T10:55:28.596Z,6.00
2023-03-05T10:57:06.395Z,5.90
2023-03-05T10:58:39.140Z,5.90
2023-03-05T11:00:20.829Z,5.90
2023-03-05T11:02:05.117Z,5.90
2023-03-05T11:03:49.797Z,5.90
2023-03-05T11:05:40.821Z,5.90
2023-03-05T11:07:33.529Z,5.90
2023-03-05T11:09:19.784Z,5.90
2023-03-05T11:11:04.699Z,5.90
2023-03-05T11:12:39.021Z,5.90
2023-03-05T11:14:29.926Z,5.90
2023-03-05T11:16:03.908Z,5.90
2023-03-05T11:17:39.596Z,5.80
2023-03-05T11:19:19.070Z,5.90
2023-03-05T11:20:51.975Z,5.80
2023-03-05T11:22:26.310Z,5.80
2023-03-05T11:24:07.428Z,5.80
2023-03-05T11:25:59.273Z,5.90
2023-03-05T11:27:36.415Z,5.90
2023-03-05T11:29:19.331Z,5.90
2023-03-05T11:30:57.818Z,6.00
2023-03-05T11:32:31.433Z,6.00
2023-03-05T11:34:05.891Z,6.00
2023-03-05T11:35:40.866Z,6.00
2023-03-05T11:37:24.404Z,6.00
2023-03-05T11:38:59.673Z,6.00
2023-03-05T11:40:35.613Z,6.00
2023-03-05T11:42:15.262Z,6.00
2023-03-05T11:43:49.187Z,6.00
2023-03-05T11:45:23.076Z,6.00
2023-03-05T11:47:00.551Z,6.00
2023-03-05T11:48:37.720Z,6.00
2023-03-05T11:50:21.210Z,6.00
2023-03-05T11:52:01.537Z,6.00
2023-03-05T11:53:36.797Z,6.00
2023-03-05T11:55:15.693Z,6.00
2023-03-05T11:56:49.291Z,6.00
2023-03-05T11:58:35.070Z,6.00
2023-03-05T12:00:12.298Z,6.10
2023-03-05T12:01:47.848Z,6.00
2023-03-05T12:03:22.605Z,6.10
2023-03-05T12:04:55.964Z,6.10
2023-03-05T12:06:34.830Z,6.10
2023-03-05T12:08:12.649Z,6.10
2023-03-05T12:09:49.271Z,6.10
2023-03-05T12:11:26.224Z,6.10
2023-03-05T12:13:05.874Z,6.10
2023-03-05T12:14:46.480Z,6.10
2023-03-05T12:16:35.830Z,6.10
2023-03-05T12:18:18.879Z,6.10
2023-03-05T12:19:58.365Z,6.10
2023-03-05T12:21:36.766Z,6.10
2023-03-05T12:23:14.362Z,6.20
2023-03-05T12:24:47.640Z,6.10
2023-03-05T12:26:57.783Z,6.20
2023-03-05T12:28:58.502Z,6.20
2023-03-05T12:30:59.199Z,6.20
2023-03-05T12:33:02.189Z,6.20
2023-03-05T12:34:48.354Z,6.20
2023-03-05T12:36:39.837Z,6.20
2023-03-05T12:38:32.224Z,6.20
2023-03-05T12:40:21.717Z,6.20
2023-03-05T12:41:56.460Z,6.20
2023-03-05T12:43:31.551Z,6.10
2023-03-05T12:45:26.833Z,6.20
2023-03-05T12:47:23.375Z,6.20
2023-03-05T12:48:56.212Z,6.20
2023-03-05T12:50:49.508Z,6.30
2023-03-05T12:52:26.004Z,6.30
2023-03-05T12:54:20.505Z,6.30
2023-03-05T12:56:00.084Z,6.40
2023-03-05T12:57:33.900Z,6.40
2023-03-05T12:59:06.927Z,6.40
2023-03-05T13:00:44.913Z,6.40
2023-03-05T13:02:28.358Z,6.40
2023-03-05T13:04:09.580Z,6.40
2023-03-05T13:05:50.542Z,6.50
2023-03-05T13:07:23.247Z,6.50
2023-03-05T13:09:01.359Z,6.50
2023-03-05T13:10:34.091Z,6.50
2023-03-05T13:12:14.265Z,6.50
2023-03-05T13:13:49.093Z,6.50
2023-03-05T13:15:23.754Z,6.50
2023-03-05T13:16:56.681Z,6.50
2023-03-05T13:18:32.564Z,6.50
2023-03-05T13:20:31.352Z,6.60
2023-03-05T13:22:11.691Z,6.60
2023-03-05T13:23:47.801Z,6.60
2023-03-05T13:25:20.939Z,6.60
2023-03-05T13:26:53.776Z,6.60
2023-03-05T13:28:25.959Z,6.60
2023-03-05T13:29:58.671Z,6.60
2023-03-05T13:31:32.179Z,6.60
2023-03-05T13:33:06.768Z,6.60
2023-03-05T13:34:48.115Z,6.60
2023-03-05T13:36:22.186Z,6.60
2023-03-05T13:37:55.093Z,6.60
2023-03-05T13:39:29.918Z,6.50
2023-03-05T13:41:08.794Z,6.60
2023-03-05T13:42:41.531Z,6.60
2023-03-05T13:44:22.522Z,6.60
2023-03-05T13:45:57.926Z,6.70
2023-03-05T13:47:33.546Z,6.70
2023-03-05T13:49:20.411Z,6.70
2023-03-05T13:50:57.830Z,6.70
2023-03-05T13:52:32.802Z,6.80
2023-03-05T13:54:08.474Z,6.80
2023-03-05T13:55:41.679Z,6.80
2023-03-05T13:57:35.383Z,6.80
2023-03-05T13:59:18.738Z,6.80
2023-03-05T14:01:05.856Z,6.80
2023-03-05T14:02:44.182Z,6.80
2023-03-05T14:04:22.213Z,6.80
2023-03-05T14:05:56.586Z,6.80
2023-03-05T14:07:33.713Z,6.80
2023-03-05T14:09:10.172Z,6.80
2023-03-05T14:10:43.010Z,6.80
2023-03-05T14:12:27.401Z,6.80
2023-03-05T14:14:07.500Z,6.80
2023-03-05T14:15:40.720Z,6.80
2023-03-05T14:17:32.925Z,6.80
2023-03-05T14:19:07.185Z,6.80
2023-03-05T14:20:41.015Z,6.80
2023-03-05T14:24:22.611Z,6.80
2023-03-05T14:26:18.483Z,6.80
2023-03-05T14:27:51.216Z,6.80
2023-03-05T14:29:26.246Z,6.80
2023-03-05T14:30:59.131Z,6.80
2023-03-05T14:32:34.493Z,6.70
2023-03-05T14:34:08.626Z,6.80
2023-03-05T14:35:41.549Z,6.70
2023-03-05T14:37:22.752Z,6.70
2023-03-05T14:38:56.769Z,6.70
2023-03-05T14:40:32.688Z,6.70
2023-03-05T14:42:31.171Z,6.60
2023-03-05T14:44:11.503Z,6.60
2023-03-05T14:45:44.903Z,6.70
2023-03-05T14:47:17.639Z,6.70
2023-03-05T14:48:50.456Z,6.70
2023-03-05T14:50:24.877Z,6.70
2023-03-05T14:51:58.078Z,6.70
2023-03-05T14:53:36.716Z,6.70
2023-03-05T14:55:15.640Z,6.70
2023-03-05T14:56:50.512Z,6.70
2023-03-05T14:58:25.974Z,6.60
2023-03-05T14:59:58.685Z,6.60
2023-03-05T15:01:31.425Z,6.60
2023-03-05T15:03:04.488Z,6.60
2023-03-05T15:04:37.199Z,6.60
2023-03-05T15:06:19.183Z,6.60
2023-03-05T15:07:53.152Z,6.60
2023-03-05T15:09:26.711Z,6.50
2023-03-05T15:11:00.086Z,6.60
2023-03-05T15:12:34.196Z,6.60
2023-03-05T15:14:06.910Z,6.50
2023-03-05T15:15:40.569Z,6.50
2023-03-05T15:17:18.940Z,6.50
2023-03-05T15:18:51.786Z,6.50
2023-03-05T15:20:26.901Z,6.50
2023-03-05T15:21:59.826Z,6.50
2023-03-05T15:23:36.497Z,6.50
2023-03-05T15:25:10.067Z,6.50
2023-03-05T15:26:42.784Z,6.40
2023-03-05T15:28:17.452Z,6.40
2023-03-05T15:29:50.152Z,6.40
2023-03-05T15:31:23.016Z,6.40
2023-03-05T15:32:57.351Z,6.50
2023-03-05T15:34:30.410Z,6.40
2023-03-05T15:36:03.567Z,6.50
2023-03-05T15:37:36.285Z,6.40
2023-03-05T15:39:08.995Z,6.40
2023-03-05T15:40:41.711Z,6.50
2023-03-05T15:42:14.485Z,6.40
2023-03-05T15:43:48.555Z,6.40
2023-03-05T15:45:21.519Z,6.40
2023-03-05T15:46:56.533Z,6.40
2023-03-05T15:48:29.227Z,6.40
2023-03-05T15:50:01.999Z,6.40
2023-03-05T15:51:34.707Z,6.30
2023-03-05T15:53:07.943Z,6.30
2023-03-05T15:54:40.725Z,6.30
2023-03-05T15:56:17.501Z,6.40
2023-03-05T15:57:52.308Z,6.40
2023-03-05T15:59:26.633Z,6.30
2023-03-05T16:01:00.180Z,6.30
2023-03-05T16:02:32.958Z,6.30
2023-03-05T16:04:06.027Z,6.30
2023-03-05T16:05:39.467Z,6.30
2023-03-05T16:07:14.041Z,6.30
2023-03-05T16:08:47.661Z,6.40
2023-03-05T16:10:23.926Z,6.30
2023-03-05T16:11:57.032Z,6.30
2023-03-05T16:13:29.722Z,6.30
2023-03-05T16:15:04.116Z,6.30
2023-03-05T16:16:37.327Z,6.30
2023-03-05T16:18:13.223Z,6.30
2023-03-05T16:19:50.165Z,6.30
2023-03-05T16:21:22.904Z,6.30
2023-03-05T16:22:55.611Z,6.30
2023-03-05T16:24:28.319Z,6.20
2023-03-05T16:26:01.070Z,6.20
2023-03-05T16:27:33.793Z,6.20
2023-03-05T16:29:06.797Z,6.20
2023-03-05T16:30:40.930Z,6.20
2023-03-05T16:32:13.666Z,6.30
2023-03-05T16:33:46.420Z,6.10
2023-03-05T16:35:19.286Z,6.20
2023-03-05T16:36:53.521Z,6.20
2023-03-05T16:38:26.216Z,6.20
2023-03-05T16:39:59.992Z,6.20
2023-03-05T16:41:33.453Z,6.10
2023-03-05T16:43:06.221Z,6.20
2023-03-05T16:44:38.912Z,6.10
2023-03-05T16:46:14.447Z,6.10
2023-03-05T16:47:47.223Z,6.10
2023-03-05T16:49:20.474Z,6.10
2023-03-05T16:50:53.173Z,6.10
2023-03-05T16:52:26.147Z,6.10
2023-03-05T16:53:58.847Z,6.10
2023-03-05T16:55:31.529Z,6.10
2023-03-05T16:57:05.203Z,6.10
2023-03-05T16:58:40.465Z,6.00
2023-03-05T17:00:14.357Z,6.10
2023-03-05T17:01:48.387Z,6.10
2023-03-05T17:03:21.256Z,6.00
2023-03-05T17:04:55.870Z,6.00
2023-03-05T17:06:31.620Z,6.10
2023-03-05T17:08:05.067Z,6.00
2023-03-05T17:09:38.293Z,6.10
2023-03-05T17:11:12.522Z,6.00
2023-03-05T17:12:47.341Z,6.00
2023-03-05T17:14:20.101Z,6.00
2023-03-05T17:15:56.214Z,6.00
2023-03-05T17:17:31.777Z,6.00
2023-03-05T17:19:04.559Z,6.00
2023-03-05T17:20:36.476Z,6.00
2023-03-05T17:22:10.424Z,5.90
2023-03-05T17:23:43.249Z,5.90
2023-03-05T17:25:15.945Z,5.90
2023-03-05T17:26:48.639Z,5.90
2023-03-05T17:28:21.439Z,5.90
2023-03-05T17:29:54.390Z,5.90
2023-03-05T17:31:27.191Z,5.90
2023-03-05T17:33:01.280Z,5.90
2023-03-05T17:34:36.883Z,5.90
2023-03-05T17:36:14.905Z,5.90
2023-03-05T17:37:47.785Z,5.90
2023-03-05T17:39:20.623Z,5.90
2023-03-05T17:40:53.403Z,5.80
2023-03-05T17:42:26.191Z,5.80
2023-03-05T17:43:58.914Z,5.80
2023-03-05T17:45:32.223Z,5.90
2023-03-05T17:47:05.497Z,5.90
2023-03-05T17:48:39.690Z,5.90
2023-03-05T17:50:14.938Z,5.90
2023-03-05T17:51:47.701Z,5.90
2023-03-05T17:53:20.865Z,5.90
2023-03-05T17:54:53.841Z,5.90
2023-03-05T17:56:26.973Z,5.90
2023-03-05T17:58:00.130Z,5.90
2023-03-05T17:59:32.815Z,5.90
2023-03-05T18:01:06.493Z,5.90
2023-03-05T18:02:39.346Z,5.80
2023-03-05T18:04:15.186Z,5.80
2023-03-05T18:05:47.972Z,5.80
2023-03-05T18:07:20.683Z,5.90
2023-03-05T18:08:53.398Z,5.80
2023-03-05T18:10:27.467Z,5.80
2023-03-05T18:12:00.527Z,5.80
2023-03-05T18:13:33.275Z,5.80
2023-03-05T18:15:07.193Z,5.80
2023-03-05T18:16:39.983Z,5.80
2023-03-05T18:18:12.761Z,5.80
2023-03-05T18:19:46.964Z,5.80
2023-03-05T18:21:21.179Z,5.80
2023-03-05T18:22:54.033Z,5.80
2023-03-05T18:24:26.788Z,5.80
2023-03-05T18:25:59.557Z,5.80
2023-03-05T18:27:32.257Z,5.70
2023-03-05T18:29:04.978Z,5.80
2023-03-05T18:30:40.433Z,5.70
2023-03-05T18:32:13.204Z,5.70
2023-03-05T18:33:46.038Z,5.70
2023-03-05T18:35:20.428Z,5.70
2023-03-05T18:36:53.862Z,5.70
2023-03-05T18:38:29.642Z,5.70
2023-03-05T18:40:03.100Z,5.70
2023-03-05T18:41:36.962Z,5.70
2023-03-05T18:43:11.112Z,5.70
2023-03-05T18:44:44.072Z,5.70
2023-03-05T18:46:17.021Z,5.70
2023-03-05T18:47:53.916Z,5.70
2023-03-05T18:49:27.302Z,5.60
2023-03-05T18:51:02.205Z,5.70
2023-03-05T18:52:34.967Z,5.60
2023-03-05T18:54:08.102Z,5.60
2023-03-05T18:55:42.621Z,5.60
2023-03-05T18:57:15.309Z,5.60
2023-03-05T18:58:48.285Z,5.60
2023-03-05T19:00:23.474Z,5.60
2023-03-05T19:01:56.228Z,5.60
2023-03-05T19:03:28.916Z,5.60
2023-03-05T19:05:02.680Z,5.60
2023-03-05T19:06:38.234Z,5.50
2023-03-05T19:08:11.854Z,5.50
2023-03-05T19:09:52.178Z,5.50
2023-03-05T19:11:25.320Z,5.50
2023-03-05T19:13:07.899Z,5.50
2023-03-05T19:14:40.603Z,5.50
2023-03-05T19:16:16.801Z,5.50
2023-03-05T19:17:50.351Z,5.50
2023-03-05T19:19:24.488Z,5.50
2023-03-05T19:20:57.391Z,5.50
2023-03-05T19:22:32.371Z,5.50
2023-03-05T19:24:05.454Z,5.50
2023-03-05T19:25:38.290Z,5.40
2023-03-05T19:27:11.531Z,5.50
2023-03-05T19:28:44.335Z,5.40
2023-03-05T19:30:17.942Z,5.40
2023-03-05T19:31:51.179Z,5.40
2023-03-05T19:33:25.034Z,5.40
2023-03-05T19:34:59.112Z,5.40
2023-03-05T19:36:32.126Z,5.30
2023-03-05T19:38:06.141Z,5.30
2023-03-05T19:39:38.883Z,5.30
2023-03-05T19:41:12.908Z,5.30
2023-03-05T19:42:45.637Z,5.30
2023-03-05T19:44:19.183Z,5.30
2023-03-05T19:45:51.936Z,5.30
2023-03-05T19:47:25.876Z,5.30
2023-03-05T19:48:58.821Z,5.30
2023-03-05T19:50:33.549Z,5.30
2023-03-05T19:52:07.421Z,5.30
2023-03-05T19:53:42.528Z,5.30
2023-03-05T19:55:15.317Z,5.20
2023-03-05T19:56:50.085Z,5.20
2023-03-05T19:58:23.034Z,5.20
2023-03-05T19:59:55.779Z,5.20
2023-03-05T20:01:28.841Z,5.20
2023-03-05T20:03:01.614Z,5.20
2023-03-05T20:04:34.324Z,5.20
2023-03-05T20:06:08.119Z,5.10
2023-03-05T20:07:40.818Z,5.10
2023-03-05T20:09:16.175Z,5.10
2023-03-05T20:10:49.006Z,5.10
2023-03-05T20:12:21.825Z,5.10
2023-03-05T20:13:54.915Z,5.10
2023-03-05T20:15:29.207Z,5.10
2023-03-05T20:17:01.978Z,5.00
2023-03-05T20:18:34.759Z,5.00
2023-03-05T20:20:08.694Z,5.10
2023-03-05T20:21:42.173Z,5.00
2023-03-05T20:23:14.862Z,5.10
2023-03-05T20:24:48.877Z,5.00
2023-03-05T20:26:23.072Z,5.00
2023-03-05T20:27:55.791Z,5.00
2023-03-05T20:29:28.521Z,5.00
2023-03-05T20:31:02.328Z,5.10
2023-03-05T20:32:35.073Z,5.00
2023-03-05T20:34:10.170Z,5.10
2023-03-05T20:35:42.926Z,5.10
2023-03-05T20:37:15.640Z,5.10
2023-03-05T20:38:47.460Z,5.10
2023-03-05T20:40:21.515Z,5.00
2023-03-05T20:41:54.230Z,5.00
2023-03-05T20:43:28.879Z,5.00
2023-03-05T20:45:01.726Z,5.00
2023-03-05T20:46:36.777Z,5.00
2023-03-05T20:48:08.984Z,5.10
2023-03-05T20:49:41.697Z,5.00
2023-03-05T20:51:16.386Z,5.10
2023-03-05T20:52:49.139Z,5.00
2023-03-05T20:54:21.898Z,5.10
2023-03-05T20:55:55.977Z,5.10
2023-03-05T20:57:28.723Z,5.10
2023-03-05T20:59:04.364Z,5.10
2023-03-05T21:00:37.758Z,5.10
2023-03-05T21:02:11.078Z,5.10
2023-03-05T21:03:43.788Z,5.10
2023-03-05T21:05:17.890Z,5.10
2023-03-05T21:06:53.964Z,5.00
2023-03-05T21:08:26.677Z,5.00